CMP135 MMMX-MPTO
Flight info
| Callsign | CMP135 |
|---|---|
| Flight time | 3h 5m |
| Altitude | 35000 |
| Route | ILET3A/05L ILETO UT109 VER UM210 MTT DCT ASOKU UM419 ANSON DCT AROVI VUMAN2B |
| Aircraft | B738/M-SDE2E3FGHIRWXY/LB1 |
Departure
| Time | 2026-05-08 02:04 |
|---|---|
| Airport | Mexico City Benito Juárez International Airport (MMMX) |
Arrival
| Time | 2026-05-08 05:09 |
|---|---|
| Airport | Tocumen International Airport (MPTO) |
| Time | Latitude | Longitude | Altitude | Speed | Heading |
|---|---|---|---|---|---|
| 2026-05-08 01:37 | 19.43383 | -99.08343 | 7302 ft | 0 kts | 328° |
| 2026-05-08 01:55 | 19.43376 | -99.08338 | 7302 ft | 2 kts | 327° |
| 2026-05-08 01:56 | 19.43362 | -99.08329 | 7302 ft | 2 kts | 327° |
| 2026-05-08 01:56 | 19.43349 | -99.08319 | 7302 ft | 2 kts | 324° |
| 2026-05-08 01:56 | 19.43336 | -99.08308 | 7302 ft | 2 kts | 318° |
| 2026-05-08 01:56 | 19.43324 | -99.08296 | 7302 ft | 2 kts | 297° |
| 2026-05-08 01:57 | 19.43323 | -99.08280 | 7289 ft | 2 kts | 244° |
| 2026-05-08 01:57 | 19.43324 | -99.08276 | 7287 ft | 0 kts | 241° |
| 2026-05-08 01:59 | 19.43323 | -99.08279 | 7288 ft | 1 kts | 240° |
| 2026-05-08 01:59 | 19.43308 | -99.08306 | 7276 ft | 7 kts | 239° |
| 2026-05-08 02:00 | 19.43275 | -99.08364 | 7302 ft | 11 kts | 239° |
| 2026-05-08 02:00 | 19.43227 | -99.08450 | 7302 ft | 16 kts | 239° |
| 2026-05-08 02:00 | 19.43166 | -99.08560 | 7302 ft | 19 kts | 239° |
| 2026-05-08 02:00 | 19.43095 | -99.08686 | 7302 ft | 21 kts | 239° |
| 2026-05-08 02:01 | 19.43020 | -99.08819 | 7302 ft | 21 kts | 239° |
| 2026-05-08 02:01 | 19.42948 | -99.08948 | 7302 ft | 20 kts | 240° |
| 2026-05-08 02:01 | 19.42868 | -99.09040 | 7302 ft | 10 kts | 210° |
| 2026-05-08 02:01 | 19.42856 | -99.09047 | 7302 ft | 0 kts | 208° |
| 2026-05-08 02:02 | 19.42848 | -99.09052 | 7302 ft | 5 kts | 208° |
| 2026-05-08 02:02 | 19.42800 | -99.09079 | 7302 ft | 11 kts | 208° |
| 2026-05-08 02:03 | 19.42764 | -99.09041 | 7302 ft | 9 kts | 66° |
| 2026-05-08 02:03 | 19.42779 | -99.09014 | 7302 ft | 14 kts | 58° |
| 2026-05-08 02:03 | 19.42932 | -99.08743 | 7301 ft | 71 kts | 59° |
| 2026-05-08 02:03 | 19.43277 | -99.08129 | 7302 ft | 121 kts | 59° |
| 2026-05-08 02:04 | 19.43785 | -99.07225 | 7302 ft | 163 kts | 59° |
| 2026-05-08 02:04 | 19.44409 | -99.06117 | 7442 ft | 187 kts | 55° |
| 2026-05-08 02:04 | 19.45092 | -99.04909 | 7967 ft | 196 kts | 57° |
| 2026-05-08 02:04 | 19.45570 | -99.04065 | 8182 ft | 203 kts | 58° |
| 2026-05-08 02:05 | 19.46528 | -99.02357 | 9056 ft | 201 kts | 56° |
| 2026-05-08 02:05 | 19.47019 | -99.01486 | 9264 ft | 209 kts | 57° |
| 2026-05-08 02:05 | 19.47784 | -99.00121 | 9350 ft | 224 kts | 57° |
| 2026-05-08 02:05 | 19.48601 | -98.98663 | 9438 ft | 236 kts | 58° |
| 2026-05-08 02:06 | 19.49459 | -98.97131 | 9515 ft | 249 kts | 59° |
| 2026-05-08 02:06 | 19.50366 | -98.95513 | 9605 ft | 261 kts | 59° |
| 2026-05-08 02:06 | 19.51309 | -98.93831 | 9814 ft | 269 kts | 60° |
| 2026-05-08 02:06 | 19.52298 | -98.92067 | 9915 ft | 288 kts | 59° |
| 2026-05-08 02:07 | 19.53321 | -98.90186 | 10163 ft | 302 kts | 66° |
| 2026-05-08 02:07 | 19.54008 | -98.88015 | 10311 ft | 319 kts | 76° |
| 2026-05-08 02:07 | 19.54569 | -98.85670 | 10400 ft | 338 kts | 76° |
| 2026-05-08 02:07 | 19.55162 | -98.83229 | 10532 ft | 353 kts | 75° |
| 2026-05-08 02:08 | 19.55810 | -98.80676 | 10821 ft | 363 kts | 76° |
| 2026-05-08 02:08 | 19.56489 | -98.78063 | 11143 ft | 371 kts | 76° |
| 2026-05-08 02:08 | 19.57176 | -98.75411 | 11609 ft | 374 kts | 79° |
| 2026-05-08 02:08 | 19.57702 | -98.72695 | 12064 ft | 378 kts | 78° |
| 2026-05-08 02:09 | 19.58304 | -98.69974 | 12607 ft | 377 kts | 78° |
| 2026-05-08 02:09 | 19.58906 | -98.67259 | 13144 ft | 380 kts | 77° |
| 2026-05-08 02:09 | 19.59504 | -98.64514 | 13624 ft | 383 kts | 77° |
| 2026-05-08 02:09 | 19.60090 | -98.61754 | 13964 ft | 390 kts | 77° |
| 2026-05-08 02:10 | 19.60681 | -98.58944 | 14459 ft | 390 kts | 77° |
| 2026-05-08 02:10 | 19.61178 | -98.56098 | 14791 ft | 395 kts | 88° |
| 2026-05-08 02:10 | 19.60777 | -98.53242 | 15288 ft | 392 kts | 112° |
| 2026-05-08 02:10 | 19.59389 | -98.50778 | 15784 ft | 390 kts | 131° |
| 2026-05-08 02:11 | 19.57682 | -98.48535 | 16267 ft | 392 kts | 128° |
| 2026-05-08 02:11 | 19.56055 | -98.46191 | 16620 ft | 397 kts | 127° |
| 2026-05-08 02:11 | 19.54448 | -98.43797 | 16998 ft | 400 kts | 126° |
| 2026-05-08 02:11 | 19.52840 | -98.41373 | 17439 ft | 402 kts | 126° |
| 2026-05-08 02:12 | 19.51229 | -98.38945 | 17860 ft | 404 kts | 126° |
| 2026-05-08 02:12 | 19.49600 | -98.36500 | 18269 ft | 406 kts | 126° |
| 2026-05-08 02:12 | 19.47962 | -98.34047 | 18648 ft | 409 kts | 126° |
| 2026-05-08 02:12 | 19.46339 | -98.31624 | 19096 ft | 407 kts | 126° |
| 2026-05-08 02:13 | 19.44696 | -98.29174 | 19479 ft | 409 kts | 126° |
| 2026-05-08 02:13 | 19.43042 | -98.26712 | 19822 ft | 411 kts | 127° |
| 2026-05-08 02:13 | 19.41377 | -98.24235 | 20154 ft | 414 kts | 126° |
| 2026-05-08 02:13 | 19.39698 | -98.21738 | 20475 ft | 416 kts | 126° |
| 2026-05-08 02:14 | 19.38014 | -98.19233 | 20809 ft | 418 kts | 127° |
| 2026-05-08 02:14 | 19.36322 | -98.16719 | 21127 ft | 420 kts | 127° |
| 2026-05-08 02:14 | 19.34612 | -98.14179 | 21439 ft | 422 kts | 127° |
| 2026-05-08 02:14 | 19.32906 | -98.11647 | 21731 ft | 424 kts | 127° |
| 2026-05-08 02:15 | 19.31208 | -98.09073 | 22036 ft | 427 kts | 123° |
| 2026-05-08 02:15 | 19.29898 | -98.06250 | 22319 ft | 431 kts | 111° |
| 2026-05-08 02:15 | 19.29111 | -98.03165 | 22609 ft | 435 kts | 101° |
| 2026-05-08 02:15 | 19.28774 | -97.99973 | 22853 ft | 439 kts | 96° |
| 2026-05-08 02:16 | 19.28551 | -97.96737 | 23123 ft | 442 kts | 95° |
| 2026-05-08 02:16 | 19.28345 | -97.93544 | 23523 ft | 440 kts | 95° |
| 2026-05-08 02:16 | 19.28135 | -97.90300 | 23744 ft | 443 kts | 95° |
| 2026-05-08 02:16 | 19.27912 | -97.87031 | 23921 ft | 446 kts | 96° |
| 2026-05-08 02:17 | 19.27676 | -97.83742 | 24148 ft | 448 kts | 96° |
| 2026-05-08 02:17 | 19.27432 | -97.80450 | 24390 ft | 449 kts | 96° |
| 2026-05-08 02:17 | 19.27181 | -97.77150 | 24624 ft | 451 kts | 96° |
| 2026-05-08 02:17 | 19.26927 | -97.73838 | 24849 ft | 452 kts | 96° |
| 2026-05-08 02:18 | 19.26671 | -97.70512 | 25063 ft | 454 kts | 96° |
| 2026-05-08 02:18 | 19.26412 | -97.67168 | 25280 ft | 456 kts | 96° |
| 2026-05-08 02:18 | 19.26152 | -97.63827 | 25494 ft | 457 kts | 96° |
| 2026-05-08 02:18 | 19.25891 | -97.60460 | 25706 ft | 459 kts | 96° |
| 2026-05-08 02:19 | 19.25628 | -97.57089 | 25918 ft | 460 kts | 97° |
| 2026-05-08 02:19 | 19.25364 | -97.53711 | 26144 ft | 461 kts | 97° |
| 2026-05-08 02:19 | 19.25098 | -97.50323 | 26351 ft | 463 kts | 97° |
| 2026-05-08 02:19 | 19.24834 | -97.46962 | 26550 ft | 464 kts | 97° |
| 2026-05-08 02:20 | 19.24566 | -97.43550 | 26763 ft | 466 kts | 97° |
| 2026-05-08 02:20 | 19.24295 | -97.40127 | 26938 ft | 468 kts | 97° |
| 2026-05-08 02:20 | 19.24023 | -97.36686 | 27073 ft | 471 kts | 97° |
| 2026-05-08 02:20 | 19.23749 | -97.33226 | 27218 ft | 473 kts | 97° |
| 2026-05-08 02:21 | 19.23472 | -97.29746 | 27406 ft | 474 kts | 97° |
| 2026-05-08 02:21 | 19.23195 | -97.26258 | 27590 ft | 475 kts | 97° |
| 2026-05-08 02:21 | 19.22916 | -97.22765 | 27780 ft | 476 kts | 97° |
| 2026-05-08 02:21 | 19.22638 | -97.19273 | 27932 ft | 477 kts | 97° |
| 2026-05-08 02:22 | 19.22356 | -97.15766 | 28078 ft | 479 kts | 97° |
| 2026-05-08 02:22 | 19.22072 | -97.12243 | 28219 ft | 480 kts | 97° |
| 2026-05-08 02:22 | 19.21788 | -97.08726 | 28397 ft | 481 kts | 97° |
| 2026-05-08 02:22 | 19.21502 | -97.05191 | 28554 ft | 483 kts | 97° |
| 2026-05-08 02:23 | 19.21214 | -97.01630 | 28704 ft | 485 kts | 97° |
| 2026-05-08 02:23 | 19.20925 | -96.98072 | 28802 ft | 486 kts | 97° |
| 2026-05-08 02:23 | 19.20635 | -96.94516 | 28989 ft | 486 kts | 97° |
| 2026-05-08 02:23 | 19.20348 | -96.90998 | 29200 ft | 486 kts | 97° |
| 2026-05-08 02:24 | 19.20057 | -96.87436 | 29459 ft | 485 kts | 97° |
| 2026-05-08 02:24 | 19.19766 | -96.83881 | 29627 ft | 485 kts | 97° |
| 2026-05-08 02:24 | 19.19473 | -96.80320 | 29804 ft | 485 kts | 97° |
| 2026-05-08 02:24 | 19.19179 | -96.76759 | 29976 ft | 486 kts | 97° |
| 2026-05-08 02:25 | 19.18885 | -96.73199 | 30182 ft | 485 kts | 97° |
| 2026-05-08 02:25 | 19.18591 | -96.69646 | 30397 ft | 484 kts | 97° |
| 2026-05-08 02:25 | 19.18296 | -96.66089 | 30532 ft | 484 kts | 97° |
| 2026-05-08 02:25 | 19.18004 | -96.62579 | 30704 ft | 484 kts | 97° |
| 2026-05-08 02:26 | 19.17703 | -96.58984 | 30896 ft | 484 kts | 97° |
| 2026-05-08 02:26 | 19.17406 | -96.55439 | 31095 ft | 484 kts | 97° |
| 2026-05-08 02:26 | 19.17113 | -96.51945 | 31260 ft | 483 kts | 97° |
| 2026-05-08 02:26 | 19.16815 | -96.48403 | 31436 ft | 484 kts | 97° |
| 2026-05-08 02:27 | 19.16516 | -96.44853 | 31613 ft | 483 kts | 96° |
| 2026-05-08 02:27 | 19.16215 | -96.41304 | 31808 ft | 483 kts | 96° |
| 2026-05-08 02:27 | 19.15916 | -96.37767 | 32006 ft | 483 kts | 96° |
| 2026-05-08 02:27 | 19.15615 | -96.34233 | 32203 ft | 482 kts | 96° |
| 2026-05-08 02:28 | 19.15313 | -96.30701 | 32392 ft | 482 kts | 96° |
| 2026-05-08 02:28 | 19.15013 | -96.27180 | 32589 ft | 482 kts | 96° |
| 2026-05-08 02:28 | 19.14697 | -96.23648 | 32782 ft | 481 kts | 99° |
| 2026-05-08 02:28 | 19.14013 | -96.20207 | 32929 ft | 478 kts | 109° |
| 2026-05-08 02:29 | 19.12839 | -96.16921 | 33121 ft | 476 kts | 117° |
| 2026-05-08 02:29 | 19.11245 | -96.13866 | 33303 ft | 473 kts | 125° |
| 2026-05-08 02:29 | 19.09398 | -96.10996 | 33493 ft | 472 kts | 126° |
| 2026-05-08 02:29 | 19.07518 | -96.08142 | 33647 ft | 472 kts | 126° |
| 2026-05-08 02:30 | 19.05666 | -96.05328 | 33777 ft | 473 kts | 126° |
| 2026-05-08 02:30 | 19.03799 | -96.02465 | 33934 ft | 473 kts | 126° |
| 2026-05-08 02:30 | 19.01946 | -95.99597 | 34122 ft | 472 kts | 126° |
| 2026-05-08 02:30 | 19.00112 | -95.96742 | 34371 ft | 469 kts | 126° |
| 2026-05-08 02:31 | 18.98283 | -95.93890 | 34570 ft | 467 kts | 126° |
| 2026-05-08 02:31 | 18.96460 | -95.91046 | 34691 ft | 468 kts | 126° |
| 2026-05-08 02:31 | 18.94626 | -95.88191 | 34801 ft | 468 kts | 126° |
| 2026-05-08 02:31 | 18.92795 | -95.85341 | 34852 ft | 469 kts | 126° |
| 2026-05-08 02:32 | 18.89127 | -95.79634 | 34865 ft | 469 kts | 126° |
| 2026-05-08 02:32 | 18.85475 | -95.73943 | 34867 ft | 467 kts | 126° |
| 2026-05-08 02:33 | 18.81832 | -95.68274 | 34863 ft | 466 kts | 125° |
| 2026-05-08 02:33 | 18.78186 | -95.62610 | 34876 ft | 466 kts | 125° |
| 2026-05-08 02:34 | 18.74558 | -95.56981 | 34868 ft | 466 kts | 125° |
| 2026-05-08 02:34 | 18.70907 | -95.51320 | 34875 ft | 467 kts | 125° |
| 2026-05-08 02:35 | 18.67245 | -95.45648 | 34874 ft | 468 kts | 125° |
| 2026-05-08 02:35 | 18.63567 | -95.39956 | 34875 ft | 470 kts | 125° |
| 2026-05-08 02:36 | 18.59885 | -95.34267 | 34879 ft | 471 kts | 125° |
| 2026-05-08 02:36 | 18.56185 | -95.28550 | 34883 ft | 472 kts | 125° |
| 2026-05-08 02:37 | 18.52491 | -95.22849 | 34881 ft | 474 kts | 125° |
| 2026-05-08 02:37 | 18.48768 | -95.17113 | 34902 ft | 475 kts | 125° |
| 2026-05-08 02:38 | 18.45028 | -95.11359 | 34893 ft | 476 kts | 125° |
| 2026-05-08 02:38 | 18.41288 | -95.05611 | 34891 ft | 475 kts | 125° |
| 2026-05-08 02:39 | 18.37551 | -94.99872 | 34889 ft | 475 kts | 125° |
| 2026-05-08 02:39 | 18.33820 | -94.94150 | 34896 ft | 473 kts | 125° |
| 2026-05-08 02:40 | 18.30094 | -94.88439 | 34890 ft | 472 kts | 125° |
| 2026-05-08 02:40 | 18.26401 | -94.82785 | 34888 ft | 471 kts | 125° |
| 2026-05-08 02:41 | 18.22698 | -94.77120 | 34890 ft | 469 kts | 125° |
| 2026-05-08 02:41 | 18.19000 | -94.71468 | 34878 ft | 468 kts | 125° |
| 2026-05-08 02:42 | 18.15307 | -94.65831 | 34860 ft | 467 kts | 125° |
| 2026-05-08 02:42 | 18.11623 | -94.60211 | 34861 ft | 467 kts | 125° |
| 2026-05-08 02:43 | 18.07985 | -94.54568 | 34852 ft | 467 kts | 123° |
| 2026-05-08 02:43 | 18.04453 | -94.48822 | 34864 ft | 468 kts | 123° |
| 2026-05-08 02:44 | 18.00922 | -94.43054 | 34869 ft | 469 kts | 123° |
| 2026-05-08 02:44 | 17.97384 | -94.37319 | 34864 ft | 471 kts | 123° |
| 2026-05-08 02:45 | 17.93797 | -94.31533 | 34861 ft | 473 kts | 123° |
| 2026-05-08 02:45 | 17.90194 | -94.25733 | 34855 ft | 474 kts | 123° |
| 2026-05-08 02:46 | 17.86583 | -94.19926 | 34857 ft | 475 kts | 123° |
| 2026-05-08 02:46 | 17.82960 | -94.14103 | 34846 ft | 476 kts | 123° |
| 2026-05-08 02:47 | 17.79357 | -94.08316 | 34850 ft | 476 kts | 123° |
| 2026-05-08 02:47 | 17.75727 | -94.02491 | 34845 ft | 476 kts | 123° |
| 2026-05-08 02:48 | 17.72102 | -93.96680 | 34845 ft | 476 kts | 124° |
| 2026-05-08 02:48 | 17.69087 | -93.91849 | 34846 ft | 475 kts | 124° |
| 2026-05-08 02:49 | 17.64884 | -93.85123 | 34836 ft | 473 kts | 124° |
| 2026-05-08 02:49 | 17.61864 | -93.80293 | 34844 ft | 472 kts | 123° |
| 2026-05-08 02:50 | 17.58264 | -93.74542 | 34848 ft | 470 kts | 124° |
| 2026-05-08 02:50 | 17.54700 | -93.68853 | 34858 ft | 470 kts | 124° |
| 2026-05-08 02:51 | 17.51112 | -93.63130 | 34858 ft | 469 kts | 124° |
| 2026-05-08 02:51 | 17.47524 | -93.57411 | 34858 ft | 469 kts | 124° |
| 2026-05-08 02:52 | 17.43931 | -93.51691 | 34860 ft | 470 kts | 124° |
| 2026-05-08 02:52 | 17.40355 | -93.46000 | 34873 ft | 471 kts | 124° |
| 2026-05-08 02:53 | 17.36746 | -93.40263 | 34875 ft | 472 kts | 123° |
| 2026-05-08 02:53 | 17.33129 | -93.34517 | 34890 ft | 473 kts | 123° |
| 2026-05-08 02:54 | 17.29501 | -93.28760 | 34909 ft | 474 kts | 124° |
| 2026-05-08 02:54 | 17.25868 | -93.23000 | 34905 ft | 474 kts | 124° |
| 2026-05-08 02:55 | 17.20411 | -93.14355 | 34928 ft | 475 kts | 124° |
| 2026-05-08 02:56 | 17.16763 | -93.08582 | 34926 ft | 475 kts | 124° |
| 2026-05-08 02:56 | 17.13118 | -93.02820 | 34978 ft | 475 kts | 123° |
| 2026-05-08 02:57 | 17.09494 | -92.97096 | 34976 ft | 475 kts | 124° |
| 2026-05-08 02:57 | 17.05848 | -92.91341 | 34980 ft | 474 kts | 124° |
| 2026-05-08 02:58 | 17.02203 | -92.85594 | 35023 ft | 473 kts | 123° |
| 2026-05-08 02:58 | 16.98566 | -92.79863 | 35010 ft | 473 kts | 123° |
| 2026-05-08 02:59 | 16.94935 | -92.74147 | 35029 ft | 471 kts | 123° |
| 2026-05-08 02:59 | 16.91311 | -92.68445 | 35027 ft | 471 kts | 123° |
| 2026-05-08 03:00 | 16.87685 | -92.62746 | 35032 ft | 470 kts | 123° |
| 2026-05-08 03:00 | 16.84084 | -92.57090 | 35042 ft | 471 kts | 123° |
| 2026-05-08 03:01 | 16.80451 | -92.51390 | 35064 ft | 470 kts | 123° |
| 2026-05-08 03:01 | 16.76817 | -92.45692 | 35051 ft | 472 kts | 123° |
| 2026-05-08 03:02 | 16.73204 | -92.40031 | 35068 ft | 472 kts | 123° |
| 2026-05-08 03:02 | 16.69556 | -92.34320 | 35070 ft | 473 kts | 123° |
| 2026-05-08 03:03 | 16.65906 | -92.28612 | 35072 ft | 473 kts | 123° |
| 2026-05-08 03:03 | 16.62253 | -92.22902 | 35064 ft | 473 kts | 123° |
| 2026-05-08 03:04 | 16.58602 | -92.17201 | 35069 ft | 472 kts | 123° |
| 2026-05-08 03:04 | 16.54948 | -92.11499 | 35057 ft | 471 kts | 123° |
| 2026-05-08 03:05 | 16.51310 | -92.05827 | 35058 ft | 470 kts | 123° |
| 2026-05-08 03:05 | 16.47703 | -92.00208 | 35053 ft | 469 kts | 123° |
| 2026-05-08 03:06 | 16.44075 | -91.94562 | 35044 ft | 468 kts | 123° |
| 2026-05-08 03:06 | 16.40452 | -91.88927 | 35048 ft | 467 kts | 123° |
| 2026-05-08 03:07 | 16.36830 | -91.83298 | 35045 ft | 467 kts | 123° |
| 2026-05-08 03:07 | 16.33242 | -91.77725 | 35033 ft | 466 kts | 123° |
| 2026-05-08 03:08 | 16.29622 | -91.72109 | 35025 ft | 466 kts | 123° |
| 2026-05-08 03:08 | 16.26004 | -91.66498 | 35010 ft | 466 kts | 123° |
| 2026-05-08 03:09 | 16.22389 | -91.60899 | 35006 ft | 467 kts | 123° |
| 2026-05-08 03:09 | 16.18766 | -91.55292 | 35040 ft | 467 kts | 123° |
| 2026-05-08 03:10 | 16.15132 | -91.49672 | 35012 ft | 468 kts | 123° |
| 2026-05-08 03:10 | 16.11494 | -91.44052 | 35022 ft | 469 kts | 123° |
| 2026-05-08 03:11 | 16.07874 | -91.38461 | 35020 ft | 470 kts | 123° |
| 2026-05-08 03:11 | 16.04373 | -91.32722 | 35035 ft | 470 kts | 120° |
| 2026-05-08 03:12 | 16.01027 | -91.26863 | 35032 ft | 471 kts | 120° |
| 2026-05-08 03:12 | 15.97673 | -91.21006 | 35000 ft | 471 kts | 120° |
| 2026-05-08 03:13 | 15.94284 | -91.15164 | 34989 ft | 471 kts | 120° |
| 2026-05-08 03:13 | 15.90882 | -91.09341 | 35044 ft | 471 kts | 121° |
| 2026-05-08 03:14 | 15.87500 | -91.03562 | 35020 ft | 470 kts | 120° |
| 2026-05-08 03:14 | 15.84097 | -90.97751 | 35017 ft | 470 kts | 121° |
| 2026-05-08 03:15 | 15.80701 | -90.91955 | 35019 ft | 470 kts | 120° |
| 2026-05-08 03:15 | 15.77305 | -90.86162 | 35050 ft | 469 kts | 120° |
| 2026-05-08 03:16 | 15.73910 | -90.80374 | 35053 ft | 469 kts | 120° |
| 2026-05-08 03:16 | 15.70517 | -90.74595 | 35036 ft | 469 kts | 121° |
| 2026-05-08 03:17 | 15.67114 | -90.68805 | 35039 ft | 469 kts | 121° |
| 2026-05-08 03:17 | 15.63713 | -90.63022 | 35083 ft | 469 kts | 121° |
| 2026-05-08 03:18 | 15.60326 | -90.57266 | 35079 ft | 470 kts | 121° |
| 2026-05-08 03:18 | 15.56917 | -90.51479 | 35084 ft | 470 kts | 121° |
| 2026-05-08 03:19 | 15.53504 | -90.45687 | 35084 ft | 470 kts | 121° |
| 2026-05-08 03:19 | 15.50092 | -90.39903 | 35086 ft | 469 kts | 121° |
| 2026-05-08 03:20 | 15.46687 | -90.34135 | 35114 ft | 469 kts | 121° |
| 2026-05-08 03:20 | 15.43297 | -90.28397 | 35105 ft | 469 kts | 121° |
| 2026-05-08 03:21 | 15.39883 | -90.22624 | 35109 ft | 469 kts | 121° |
| 2026-05-08 03:21 | 15.36472 | -90.16859 | 35102 ft | 469 kts | 121° |
| 2026-05-08 03:22 | 15.33076 | -90.11123 | 35091 ft | 469 kts | 121° |
| 2026-05-08 03:22 | 15.29659 | -90.05357 | 35090 ft | 469 kts | 121° |
| 2026-05-08 03:23 | 15.26245 | -89.99601 | 35067 ft | 469 kts | 121° |
| 2026-05-08 03:23 | 15.22832 | -89.93850 | 35049 ft | 468 kts | 121° |
| 2026-05-08 03:24 | 15.19417 | -89.88101 | 35056 ft | 468 kts | 121° |
| 2026-05-08 03:24 | 15.16006 | -89.82362 | 35058 ft | 467 kts | 121° |
| 2026-05-08 03:25 | 15.12624 | -89.76677 | 35060 ft | 467 kts | 121° |
| 2026-05-08 03:25 | 15.09221 | -89.70960 | 35058 ft | 466 kts | 121° |
| 2026-05-08 03:26 | 15.05816 | -89.65244 | 35041 ft | 466 kts | 121° |
| 2026-05-08 03:26 | 15.02415 | -89.59539 | 35040 ft | 466 kts | 121° |
| 2026-05-08 03:27 | 14.99011 | -89.53834 | 35013 ft | 465 kts | 121° |
| 2026-05-08 03:27 | 14.95610 | -89.48138 | 35013 ft | 465 kts | 121° |
| 2026-05-08 03:28 | 14.92204 | -89.42436 | 35027 ft | 465 kts | 121° |
| 2026-05-08 03:28 | 14.88818 | -89.36773 | 35005 ft | 466 kts | 121° |
| 2026-05-08 03:29 | 14.85407 | -89.31072 | 35003 ft | 466 kts | 121° |
| 2026-05-08 03:29 | 14.81998 | -89.25379 | 35002 ft | 466 kts | 121° |
| 2026-05-08 03:30 | 14.76881 | -89.16841 | 34997 ft | 465 kts | 122° |
| 2026-05-08 03:31 | 14.70089 | -89.05522 | 34973 ft | 465 kts | 122° |
| 2026-05-08 03:32 | 14.64984 | -88.97024 | 34969 ft | 464 kts | 122° |
| 2026-05-08 03:32 | 14.61580 | -88.91364 | 34975 ft | 463 kts | 122° |
| 2026-05-08 03:33 | 14.58177 | -88.85711 | 34969 ft | 463 kts | 122° |
| 2026-05-08 03:33 | 14.54778 | -88.80068 | 34970 ft | 462 kts | 121° |
| 2026-05-08 03:34 | 14.51410 | -88.74478 | 34965 ft | 461 kts | 121° |
| 2026-05-08 03:34 | 14.48018 | -88.68853 | 34978 ft | 461 kts | 121° |
| 2026-05-08 03:35 | 14.44627 | -88.63234 | 34981 ft | 460 kts | 121° |
| 2026-05-08 03:35 | 14.41811 | -88.58571 | 34987 ft | 460 kts | 121° |
| 2026-05-08 03:36 | 14.38424 | -88.52965 | 34989 ft | 460 kts | 121° |
| 2026-05-08 03:36 | 14.35039 | -88.47367 | 34990 ft | 460 kts | 121° |
| 2026-05-08 03:37 | 14.31641 | -88.41752 | 35007 ft | 461 kts | 121° |
| 2026-05-08 03:37 | 14.28235 | -88.36126 | 35007 ft | 463 kts | 121° |
| 2026-05-08 03:38 | 14.24813 | -88.30479 | 35022 ft | 464 kts | 121° |
| 2026-05-08 03:38 | 14.21409 | -88.24864 | 35020 ft | 466 kts | 121° |
| 2026-05-08 03:39 | 14.17970 | -88.19197 | 35015 ft | 466 kts | 121° |
| 2026-05-08 03:39 | 14.14530 | -88.13530 | 35022 ft | 466 kts | 121° |
| 2026-05-08 03:40 | 14.11087 | -88.07864 | 35028 ft | 465 kts | 121° |
| 2026-05-08 03:40 | 14.07676 | -88.02254 | 35032 ft | 464 kts | 121° |
| 2026-05-08 03:41 | 14.04253 | -87.96629 | 35020 ft | 463 kts | 121° |
| 2026-05-08 03:41 | 14.00835 | -87.91016 | 35024 ft | 462 kts | 121° |
| 2026-05-08 03:42 | 13.97427 | -87.85420 | 35039 ft | 461 kts | 121° |
| 2026-05-08 03:42 | 13.94018 | -87.79830 | 35034 ft | 460 kts | 121° |
| 2026-05-08 03:43 | 13.90619 | -87.74259 | 35015 ft | 460 kts | 122° |
| 2026-05-08 03:43 | 13.87209 | -87.68672 | 35043 ft | 460 kts | 122° |
| 2026-05-08 03:44 | 13.83826 | -87.63134 | 35044 ft | 460 kts | 121° |
| 2026-05-08 03:44 | 13.80413 | -87.57552 | 35046 ft | 460 kts | 121° |
| 2026-05-08 03:45 | 13.76998 | -87.51967 | 35051 ft | 461 kts | 121° |
| 2026-05-08 03:45 | 13.73575 | -87.46376 | 35053 ft | 461 kts | 122° |
| 2026-05-08 03:46 | 13.70174 | -87.40823 | 35057 ft | 461 kts | 122° |
| 2026-05-08 03:46 | 13.66747 | -87.35231 | 35073 ft | 462 kts | 121° |
| 2026-05-08 03:47 | 13.63320 | -87.29643 | 35074 ft | 462 kts | 121° |
| 2026-05-08 03:47 | 13.59887 | -87.24049 | 35063 ft | 463 kts | 122° |
| 2026-05-08 03:48 | 13.56445 | -87.18444 | 35057 ft | 463 kts | 121° |
| 2026-05-08 03:48 | 13.53024 | -87.12878 | 35058 ft | 464 kts | 122° |
| 2026-05-08 03:49 | 13.49571 | -87.07261 | 35057 ft | 465 kts | 122° |
| 2026-05-08 03:49 | 13.46114 | -87.01643 | 35036 ft | 466 kts | 122° |
| 2026-05-08 03:50 | 13.42646 | -86.96011 | 35042 ft | 466 kts | 122° |
| 2026-05-08 03:50 | 13.39175 | -86.90379 | 35040 ft | 467 kts | 121° |
| 2026-05-08 03:51 | 13.35702 | -86.84744 | 35037 ft | 467 kts | 121° |
| 2026-05-08 03:51 | 13.32224 | -86.79107 | 35014 ft | 467 kts | 121° |
| 2026-05-08 03:52 | 13.28746 | -86.73473 | 35011 ft | 467 kts | 121° |
| 2026-05-08 03:52 | 13.25271 | -86.67846 | 35008 ft | 466 kts | 121° |
| 2026-05-08 03:53 | 13.21819 | -86.62260 | 35002 ft | 466 kts | 121° |
| 2026-05-08 03:53 | 13.18351 | -86.56655 | 34997 ft | 465 kts | 121° |
| 2026-05-08 03:54 | 13.14884 | -86.51053 | 34997 ft | 464 kts | 121° |
| 2026-05-08 03:54 | 13.11426 | -86.45468 | 34982 ft | 463 kts | 121° |
| 2026-05-08 03:55 | 13.07987 | -86.39917 | 34988 ft | 460 kts | 121° |
| 2026-05-08 03:55 | 13.04556 | -86.34385 | 34986 ft | 459 kts | 121° |
| 2026-05-08 03:56 | 13.01160 | -86.28911 | 34963 ft | 457 kts | 121° |
| 2026-05-08 03:56 | 12.97743 | -86.23407 | 34968 ft | 456 kts | 121° |
| 2026-05-08 03:57 | 12.94337 | -86.17924 | 34970 ft | 455 kts | 121° |
| 2026-05-08 03:57 | 12.90935 | -86.12450 | 34965 ft | 455 kts | 121° |
| 2026-05-08 03:58 | 12.87527 | -86.06971 | 34944 ft | 455 kts | 121° |
| 2026-05-08 03:58 | 12.84134 | -86.01520 | 34942 ft | 456 kts | 121° |
| 2026-05-08 03:59 | 12.80719 | -85.96035 | 34932 ft | 457 kts | 121° |
| 2026-05-08 03:59 | 12.77298 | -85.90543 | 34952 ft | 457 kts | 121° |
| 2026-05-08 04:00 | 12.73868 | -85.85042 | 34935 ft | 459 kts | 121° |
| 2026-05-08 04:00 | 12.70424 | -85.79522 | 34944 ft | 460 kts | 121° |
| 2026-05-08 04:01 | 12.66976 | -85.73997 | 34949 ft | 461 kts | 121° |
| 2026-05-08 04:01 | 12.63534 | -85.68486 | 34955 ft | 462 kts | 121° |
| 2026-05-08 04:02 | 12.60068 | -85.62939 | 34952 ft | 463 kts | 122° |
| 2026-05-08 04:02 | 12.56596 | -85.57388 | 34950 ft | 463 kts | 122° |
| 2026-05-08 04:03 | 12.53123 | -85.51836 | 34955 ft | 463 kts | 121° |
| 2026-05-08 04:03 | 12.47914 | -85.43519 | 34937 ft | 462 kts | 122° |
| 2026-05-08 04:04 | 12.44473 | -85.38027 | 34961 ft | 461 kts | 121° |
| 2026-05-08 04:04 | 12.41013 | -85.32509 | 34953 ft | 460 kts | 122° |
| 2026-05-08 04:05 | 12.37557 | -85.26998 | 34954 ft | 459 kts | 122° |
| 2026-05-08 04:05 | 12.34099 | -85.21491 | 34947 ft | 459 kts | 122° |
| 2026-05-08 04:06 | 12.30649 | -85.15999 | 34973 ft | 459 kts | 121° |
| 2026-05-08 04:06 | 12.27213 | -85.10533 | 34959 ft | 460 kts | 121° |
| 2026-05-08 04:07 | 12.23748 | -85.05021 | 34955 ft | 461 kts | 121° |
| 2026-05-08 04:07 | 12.20273 | -84.99498 | 34955 ft | 462 kts | 122° |
| 2026-05-08 04:08 | 12.16789 | -84.93964 | 34970 ft | 463 kts | 121° |
| 2026-05-08 04:08 | 12.13322 | -84.88460 | 34962 ft | 463 kts | 121° |
| 2026-05-08 04:09 | 12.09827 | -84.82914 | 34952 ft | 464 kts | 122° |
| 2026-05-08 04:09 | 12.06334 | -84.77377 | 34957 ft | 464 kts | 122° |
| 2026-05-08 04:10 | 12.02831 | -84.71825 | 34970 ft | 463 kts | 122° |
| 2026-05-08 04:10 | 11.99341 | -84.66298 | 34976 ft | 462 kts | 122° |
| 2026-05-08 04:11 | 11.95875 | -84.60810 | 34962 ft | 462 kts | 122° |
| 2026-05-08 04:11 | 11.92392 | -84.55300 | 34959 ft | 461 kts | 122° |
| 2026-05-08 04:12 | 11.88911 | -84.49796 | 34980 ft | 460 kts | 122° |
| 2026-05-08 04:12 | 11.85440 | -84.44311 | 34977 ft | 459 kts | 121° |
| 2026-05-08 04:13 | 11.81966 | -84.38823 | 34958 ft | 459 kts | 122° |
| 2026-05-08 04:13 | 11.78506 | -84.33362 | 34972 ft | 458 kts | 122° |
| 2026-05-08 04:14 | 11.75039 | -84.27892 | 34971 ft | 458 kts | 122° |
| 2026-05-08 04:14 | 11.71590 | -84.22454 | 34979 ft | 458 kts | 122° |
| 2026-05-08 04:15 | 11.68123 | -84.16990 | 34976 ft | 459 kts | 122° |
| 2026-05-08 04:15 | 11.64648 | -84.11518 | 34975 ft | 459 kts | 122° |
| 2026-05-08 04:16 | 11.61169 | -84.06041 | 34990 ft | 460 kts | 122° |
| 2026-05-08 04:16 | 11.57689 | -84.00567 | 34979 ft | 460 kts | 122° |
| 2026-05-08 04:17 | 11.54206 | -83.95089 | 34978 ft | 460 kts | 122° |
| 2026-05-08 04:17 | 11.50716 | -83.89604 | 34972 ft | 461 kts | 122° |
| 2026-05-08 04:18 | 11.47247 | -83.84157 | 34967 ft | 460 kts | 122° |
| 2026-05-08 04:18 | 11.43758 | -83.78679 | 34969 ft | 460 kts | 122° |
| 2026-05-08 04:19 | 11.40279 | -83.73220 | 34962 ft | 459 kts | 122° |
| 2026-05-08 04:19 | 11.36804 | -83.67771 | 34963 ft | 457 kts | 122° |
| 2026-05-08 04:20 | 11.33922 | -83.63255 | 34970 ft | 456 kts | 122° |
| 2026-05-08 04:20 | 11.29896 | -83.56948 | 34969 ft | 455 kts | 122° |
| 2026-05-08 04:21 | 11.27023 | -83.52450 | 34965 ft | 455 kts | 122° |
| 2026-05-08 04:21 | 11.23561 | -83.47034 | 34962 ft | 455 kts | 122° |
| 2026-05-08 04:22 | 11.20105 | -83.41633 | 34965 ft | 455 kts | 122° |
| 2026-05-08 04:22 | 11.16642 | -83.36221 | 34968 ft | 456 kts | 122° |
| 2026-05-08 04:23 | 11.13215 | -83.30831 | 34967 ft | 456 kts | 122° |
| 2026-05-08 04:23 | 11.09769 | -83.25349 | 34965 ft | 457 kts | 122° |
| 2026-05-08 04:24 | 11.06362 | -83.19935 | 34967 ft | 457 kts | 122° |
| 2026-05-08 04:24 | 11.02922 | -83.14481 | 34965 ft | 458 kts | 122° |
| 2026-05-08 04:25 | 10.99474 | -83.09023 | 34962 ft | 458 kts | 122° |
| 2026-05-08 04:25 | 10.96020 | -83.03559 | 34966 ft | 458 kts | 122° |
| 2026-05-08 04:26 | 10.92570 | -82.98103 | 34961 ft | 458 kts | 122° |
| 2026-05-08 04:26 | 10.89121 | -82.92652 | 34958 ft | 458 kts | 121° |
| 2026-05-08 04:27 | 10.85677 | -82.87212 | 34960 ft | 457 kts | 122° |
| 2026-05-08 04:27 | 10.82228 | -82.81767 | 34968 ft | 457 kts | 122° |
| 2026-05-08 04:28 | 10.78808 | -82.76373 | 34964 ft | 456 kts | 122° |
| 2026-05-08 04:28 | 10.75368 | -82.70949 | 34959 ft | 456 kts | 122° |
| 2026-05-08 04:29 | 10.71929 | -82.65529 | 34957 ft | 456 kts | 122° |
| 2026-05-08 04:29 | 10.68516 | -82.60099 | 34968 ft | 455 kts | 121° |
| 2026-05-08 04:30 | 10.65148 | -82.54628 | 34969 ft | 455 kts | 121° |
| 2026-05-08 04:30 | 10.61791 | -82.49170 | 34956 ft | 455 kts | 121° |
| 2026-05-08 04:31 | 10.58425 | -82.43717 | 34957 ft | 455 kts | 121° |
| 2026-05-08 04:31 | 10.55048 | -82.38259 | 34959 ft | 456 kts | 121° |
| 2026-05-08 04:32 | 10.51669 | -82.32803 | 34963 ft | 457 kts | 121° |
| 2026-05-08 04:32 | 10.48302 | -82.27367 | 34957 ft | 457 kts | 121° |
| 2026-05-08 04:33 | 10.44906 | -82.21889 | 34965 ft | 459 kts | 121° |
| 2026-05-08 04:33 | 10.41495 | -82.16389 | 34960 ft | 460 kts | 121° |
| 2026-05-08 04:34 | 10.38082 | -82.10887 | 34959 ft | 461 kts | 121° |
| 2026-05-08 04:34 | 10.34661 | -82.05375 | 34961 ft | 462 kts | 121° |
| 2026-05-08 04:35 | 10.31229 | -81.99849 | 34958 ft | 462 kts | 121° |
| 2026-05-08 04:35 | 10.27816 | -81.94356 | 34962 ft | 462 kts | 121° |
| 2026-05-08 04:36 | 10.24378 | -81.88826 | 34956 ft | 462 kts | 121° |
| 2026-05-08 04:36 | 10.20946 | -81.83308 | 34954 ft | 462 kts | 121° |
| 2026-05-08 04:37 | 10.17516 | -81.77796 | 34958 ft | 461 kts | 121° |
| 2026-05-08 04:37 | 10.14086 | -81.72287 | 34961 ft | 461 kts | 121° |
| 2026-05-08 04:38 | 10.10664 | -81.66792 | 34964 ft | 460 kts | 121° |
| 2026-05-08 04:38 | 10.07264 | -81.61337 | 34962 ft | 460 kts | 121° |
| 2026-05-08 04:39 | 10.03848 | -81.55858 | 34956 ft | 459 kts | 121° |
| 2026-05-08 04:39 | 10.00432 | -81.50381 | 34963 ft | 459 kts | 121° |
| 2026-05-08 04:40 | 9.97020 | -81.44914 | 34966 ft | 458 kts | 121° |
| 2026-05-08 04:40 | 9.93608 | -81.39448 | 34964 ft | 458 kts | 121° |
| 2026-05-08 04:41 | 9.90199 | -81.33991 | 34958 ft | 458 kts | 121° |
| 2026-05-08 04:41 | 9.86806 | -81.28561 | 34962 ft | 458 kts | 121° |
| 2026-05-08 04:42 | 9.83397 | -81.23109 | 34959 ft | 458 kts | 121° |
| 2026-05-08 04:42 | 9.81684 | -81.20370 | 34635 ft | 464 kts | 121° |
| 2026-05-08 04:42 | 9.79948 | -81.17593 | 34081 ft | 466 kts | 121° |
| 2026-05-08 04:43 | 9.78208 | -81.14813 | 33386 ft | 466 kts | 121° |
| 2026-05-08 04:43 | 9.76465 | -81.12028 | 32682 ft | 467 kts | 121° |
| 2026-05-08 04:43 | 9.74725 | -81.09249 | 32106 ft | 465 kts | 121° |
| 2026-05-08 04:43 | 9.72994 | -81.06486 | 31620 ft | 462 kts | 121° |
| 2026-05-08 04:44 | 9.71282 | -81.03754 | 31128 ft | 459 kts | 121° |
| 2026-05-08 04:44 | 9.69578 | -81.01034 | 30641 ft | 456 kts | 121° |
| 2026-05-08 04:44 | 9.67901 | -80.98360 | 30145 ft | 453 kts | 121° |
| 2026-05-08 04:44 | 9.66195 | -80.95639 | 29582 ft | 451 kts | 120° |
| 2026-05-08 04:45 | 9.64538 | -80.92998 | 29055 ft | 447 kts | 120° |
| 2026-05-08 04:45 | 9.62876 | -80.90349 | 28532 ft | 443 kts | 120° |
| 2026-05-08 04:45 | 9.61228 | -80.87723 | 28027 ft | 440 kts | 120° |
| 2026-05-08 04:45 | 9.59582 | -80.85125 | 27529 ft | 437 kts | 123° |
| 2026-05-08 04:46 | 9.57527 | -80.82856 | 27011 ft | 438 kts | 138° |
| 2026-05-08 04:46 | 9.55169 | -80.80927 | 26581 ft | 434 kts | 137° |
| 2026-05-08 04:46 | 9.52837 | -80.78993 | 26082 ft | 432 kts | 137° |
| 2026-05-08 04:46 | 9.50532 | -80.77058 | 25592 ft | 429 kts | 137° |
| 2026-05-08 04:47 | 9.48245 | -80.75122 | 25089 ft | 427 kts | 136° |
| 2026-05-08 04:47 | 9.45990 | -80.73206 | 24596 ft | 419 kts | 136° |
| 2026-05-08 04:47 | 9.43775 | -80.71320 | 24132 ft | 414 kts | 136° |
| 2026-05-08 04:47 | 9.41568 | -80.69439 | 23654 ft | 413 kts | 136° |
| 2026-05-08 04:48 | 9.39370 | -80.67564 | 23114 ft | 413 kts | 136° |
| 2026-05-08 04:48 | 9.37180 | -80.65698 | 22614 ft | 410 kts | 136° |
| 2026-05-08 04:48 | 9.35003 | -80.63844 | 22129 ft | 407 kts | 136° |
| 2026-05-08 04:48 | 9.32840 | -80.62003 | 21661 ft | 405 kts | 136° |
| 2026-05-08 04:49 | 9.30692 | -80.60175 | 21183 ft | 402 kts | 137° |
| 2026-05-08 04:49 | 9.28557 | -80.58359 | 20726 ft | 400 kts | 137° |
| 2026-05-08 04:49 | 9.26434 | -80.56553 | 20269 ft | 397 kts | 137° |
| 2026-05-08 04:49 | 9.24323 | -80.54758 | 19805 ft | 395 kts | 137° |
| 2026-05-08 04:50 | 9.22219 | -80.52970 | 19340 ft | 394 kts | 137° |
| 2026-05-08 04:50 | 9.20151 | -80.51212 | 18876 ft | 393 kts | 137° |
| 2026-05-08 04:50 | 9.18055 | -80.49431 | 18411 ft | 392 kts | 137° |
| 2026-05-08 04:50 | 9.15969 | -80.47659 | 17907 ft | 391 kts | 137° |
| 2026-05-08 04:51 | 9.13895 | -80.45899 | 17524 ft | 385 kts | 137° |
| 2026-05-08 04:51 | 9.11872 | -80.44182 | 17386 ft | 372 kts | 137° |
| 2026-05-08 04:51 | 9.09938 | -80.42542 | 17256 ft | 353 kts | 137° |
| 2026-05-08 04:51 | 9.08100 | -80.40982 | 17103 ft | 337 kts | 136° |
| 2026-05-08 04:52 | 9.06598 | -80.39267 | 16949 ft | 316 kts | 116° |
| 2026-05-08 04:52 | 9.05767 | -80.37255 | 16697 ft | 310 kts | 102° |
| 2026-05-08 04:52 | 9.05313 | -80.35125 | 16414 ft | 310 kts | 99° |
| 2026-05-08 04:52 | 9.04927 | -80.32973 | 16106 ft | 312 kts | 98° |
| 2026-05-08 04:53 | 9.04551 | -80.30815 | 15786 ft | 311 kts | 98° |
| 2026-05-08 04:53 | 9.04172 | -80.28664 | 15479 ft | 310 kts | 98° |
| 2026-05-08 04:53 | 9.03786 | -80.26517 | 15179 ft | 309 kts | 98° |
| 2026-05-08 04:53 | 9.03396 | -80.24384 | 14880 ft | 308 kts | 98° |
| 2026-05-08 04:54 | 9.03004 | -80.22258 | 14583 ft | 306 kts | 98° |
| 2026-05-08 04:54 | 9.02615 | -80.20172 | 14286 ft | 305 kts | 98° |
| 2026-05-08 04:54 | 9.02222 | -80.18067 | 13977 ft | 304 kts | 98° |
| 2026-05-08 04:54 | 9.01828 | -80.15969 | 13676 ft | 303 kts | 98° |
| 2026-05-08 04:55 | 9.01434 | -80.13873 | 13337 ft | 302 kts | 98° |
| 2026-05-08 04:55 | 9.01042 | -80.11792 | 13038 ft | 300 kts | 98° |
| 2026-05-08 04:55 | 9.00654 | -80.09733 | 12727 ft | 298 kts | 98° |
| 2026-05-08 04:55 | 9.00266 | -80.07677 | 12439 ft | 296 kts | 98° |
| 2026-05-08 04:56 | 8.99881 | -80.05634 | 12152 ft | 294 kts | 98° |
| 2026-05-08 04:56 | 8.99502 | -80.03628 | 11859 ft | 293 kts | 98° |
| 2026-05-08 04:56 | 8.99121 | -80.01611 | 11571 ft | 291 kts | 98° |
| 2026-05-08 04:56 | 8.98742 | -79.99601 | 11287 ft | 290 kts | 98° |
| 2026-05-08 04:57 | 8.98365 | -79.97608 | 11008 ft | 288 kts | 99° |
| 2026-05-08 04:57 | 8.97988 | -79.95616 | 10723 ft | 287 kts | 98° |
| 2026-05-08 04:57 | 8.97614 | -79.93636 | 10446 ft | 286 kts | 99° |
| 2026-05-08 04:57 | 8.97240 | -79.91663 | 10173 ft | 285 kts | 99° |
| 2026-05-08 04:58 | 8.96866 | -79.89693 | 9888 ft | 284 kts | 99° |
| 2026-05-08 04:58 | 8.96495 | -79.87733 | 9591 ft | 284 kts | 99° |
| 2026-05-08 04:58 | 8.96126 | -79.85778 | 9288 ft | 282 kts | 99° |
| 2026-05-08 04:58 | 8.95758 | -79.83833 | 9004 ft | 281 kts | 99° |
| 2026-05-08 04:59 | 8.95391 | -79.81898 | 8726 ft | 280 kts | 99° |
| 2026-05-08 04:59 | 8.94886 | -79.79996 | 8449 ft | 279 kts | 105° |
| 2026-05-08 04:59 | 8.94275 | -79.78158 | 8173 ft | 278 kts | 107° |
| 2026-05-08 04:59 | 8.93646 | -79.76312 | 7908 ft | 277 kts | 107° |
| 2026-05-08 05:00 | 8.93024 | -79.74471 | 7639 ft | 276 kts | 106° |
| 2026-05-08 05:00 | 8.92408 | -79.72625 | 7374 ft | 275 kts | 106° |
| 2026-05-08 05:00 | 8.91802 | -79.70790 | 7083 ft | 275 kts | 106° |
| 2026-05-08 05:00 | 8.91200 | -79.68956 | 6826 ft | 274 kts | 106° |
| 2026-05-08 05:01 | 8.90602 | -79.67124 | 6561 ft | 274 kts | 106° |
| 2026-05-08 05:01 | 8.90015 | -79.65323 | 6300 ft | 273 kts | 105° |
| 2026-05-08 05:01 | 8.89416 | -79.63474 | 5991 ft | 273 kts | 106° |
| 2026-05-08 05:01 | 8.88833 | -79.61684 | 5748 ft | 272 kts | 106° |
| 2026-05-08 05:02 | 8.87963 | -79.59987 | 5419 ft | 276 kts | 132° |
| 2026-05-08 05:02 | 8.86454 | -79.58795 | 5154 ft | 276 kts | 143° |
| 2026-05-08 05:02 | 8.84868 | -79.57674 | 4845 ft | 277 kts | 139° |
| 2026-05-08 05:02 | 8.83692 | -79.56175 | 4539 ft | 270 kts | 108° |
| 2026-05-08 05:03 | 8.83445 | -79.54367 | 4318 ft | 255 kts | 81° |
| 2026-05-08 05:03 | 8.83955 | -79.52694 | 4042 ft | 245 kts | 60° |
| 2026-05-08 05:03 | 8.84961 | -79.51353 | 3804 ft | 235 kts | 40° |
| 2026-05-08 05:03 | 8.86176 | -79.50356 | 3610 ft | 222 kts | 36° |
| 2026-05-08 05:04 | 8.87374 | -79.49441 | 3376 ft | 210 kts | 36° |
| 2026-05-08 05:04 | 8.88541 | -79.48576 | 3190 ft | 200 kts | 32° |
| 2026-05-08 05:04 | 8.89694 | -79.47857 | 2962 ft | 189 kts | 30° |
| 2026-05-08 05:04 | 8.90773 | -79.47228 | 2776 ft | 174 kts | 29° |
| 2026-05-08 05:05 | 8.91771 | -79.46657 | 2630 ft | 156 kts | 28° |
| 2026-05-08 05:05 | 8.92673 | -79.46144 | 2505 ft | 144 kts | 29° |
| 2026-05-08 05:05 | 8.93542 | -79.45649 | 2444 ft | 145 kts | 28° |
| 2026-05-08 05:05 | 8.94422 | -79.45149 | 2264 ft | 146 kts | 28° |
| 2026-05-08 05:06 | 8.95305 | -79.44645 | 2073 ft | 145 kts | 30° |
| 2026-05-08 05:06 | 8.95895 | -79.44305 | 1941 ft | 144 kts | 29° |
| 2026-05-08 05:06 | 8.96776 | -79.43803 | 1737 ft | 146 kts | 28° |
| 2026-05-08 05:06 | 8.97654 | -79.43307 | 1576 ft | 147 kts | 28° |
| 2026-05-08 05:07 | 8.98542 | -79.42801 | 1412 ft | 147 kts | 28° |
| 2026-05-08 05:07 | 8.99425 | -79.42300 | 1218 ft | 143 kts | 28° |
| 2026-05-08 05:07 | 9.00295 | -79.41802 | 1014 ft | 145 kts | 28° |
| 2026-05-08 05:07 | 9.01176 | -79.41300 | 841 ft | 146 kts | 29° |
| 2026-05-08 05:08 | 9.02063 | -79.40799 | 684 ft | 147 kts | 28° |
| 2026-05-08 05:08 | 9.02960 | -79.40284 | 478 ft | 148 kts | 28° |
| 2026-05-08 05:08 | 9.03856 | -79.39778 | 291 ft | 148 kts | 28° |
| 2026-05-08 05:08 | 9.04758 | -79.39264 | 85 ft | 151 kts | 28° |
| 2026-05-08 05:09 | 9.05631 | -79.38767 | 31 ft | 125 kts | 29° |
| 2026-05-08 05:09 | 9.06194 | -79.38447 | 30 ft | 61 kts | 29° |
| 2026-05-08 05:09 | 9.06375 | -79.38377 | 29 ft | 21 kts | 3° |
| 2026-05-08 05:09 | 9.06493 | -79.38378 | 29 ft | 13 kts | 358° |
| 2026-05-08 05:10 | 9.06580 | -79.38377 | 29 ft | 12 kts | 0° |
| 2026-05-08 05:10 | 9.06627 | -79.38477 | 29 ft | 12 kts | 207° |
| 2026-05-08 05:10 | 9.06554 | -79.38515 | 29 ft | 12 kts | 207° |
| 2026-05-08 05:11 | 9.06484 | -79.38554 | 29 ft | 11 kts | 208° |
| 2026-05-08 05:11 | 9.06416 | -79.38589 | 29 ft | 11 kts | 205° |
| 2026-05-08 05:11 | 9.06388 | -79.38642 | 29 ft | 11 kts | 309° |
| 2026-05-08 05:11 | 9.06429 | -79.38661 | 29 ft | 1 kts | 341° |
| 2026-05-08 05:12 | 9.06432 | -79.38662 | 29 ft | 0 kts | 341° |